createdAt,value
2022-12-12T00:00:41.780Z,20.50
2022-12-12T00:03:11.241Z,21.20
2022-12-12T00:05:39.397Z,16.00
2022-12-12T00:08:07.527Z,26.40
2022-12-12T00:10:35.759Z,19.60
2022-12-12T00:13:03.799Z,20.00
2022-12-12T00:15:31.848Z,19.75
2022-12-12T00:17:59.915Z,21.00
2022-12-12T00:20:29.285Z,19.20
2022-12-12T00:22:57.362Z,16.00
2022-12-12T00:25:25.338Z,26.20
2022-12-12T00:27:53.875Z,18.00
2022-12-12T00:30:21.999Z,20.60
2022-12-12T00:32:50.029Z,12.25
2022-12-12T00:35:18.138Z,17.00
2022-12-12T00:37:47.523Z,19.20
2022-12-12T00:40:15.536Z,16.60
2022-12-12T00:42:43.565Z,16.20
2022-12-12T00:45:12.789Z,18.50
2022-12-12T00:47:40.978Z,18.20
2022-12-12T00:50:09.988Z,14.00
2022-12-12T00:52:38.009Z,20.00
2022-12-12T00:55:08.250Z,16.40
2022-12-12T00:57:36.292Z,14.50
2022-12-12T01:00:04.744Z,10.00
2022-12-12T01:02:32.875Z,12.00
2022-12-12T01:05:00.898Z,10.50
2022-12-12T01:07:28.927Z,9.00
2022-12-12T01:09:56.921Z,9.40
2022-12-12T01:12:26.294Z,8.00
2022-12-12T01:14:54.295Z,8.40
2022-12-12T01:17:22.321Z,8.00
2022-12-12T01:19:50.321Z,10.00
2022-12-12T01:22:18.351Z,6.00
2022-12-12T01:24:46.355Z,5.00
2022-12-12T01:27:14.409Z,5.00
2022-12-12T01:29:43.790Z,6.00
2022-12-12T01:32:11.810Z,4.40
2022-12-12T01:34:39.807Z,5.00
2022-12-12T01:37:07.827Z,5.00
2022-12-12T01:39:35.825Z,5.00
2022-12-12T01:42:03.891Z,5.00
2022-12-12T01:44:40.812Z,7.40
2022-12-12T01:47:10.198Z,5.60
2022-12-12T01:49:38.189Z,5.60
2022-12-12T01:52:08.897Z,3.00
2022-12-12T01:54:38.670Z,5.00
2022-12-12T01:57:08.023Z,4.20
2022-12-12T01:59:36.073Z,5.00
2022-12-12T02:02:04.140Z,6.00
2022-12-12T02:04:34.743Z,5.00
2022-12-12T02:07:03.301Z,6.00
2022-12-12T02:09:31.411Z,5.00
2022-12-12T02:11:59.649Z,5.00
2022-12-12T02:14:28.736Z,3.40
2022-12-12T02:17:31.936Z,4.20
2022-12-12T02:20:27.301Z,5.00
2022-12-12T02:23:09.972Z,6.20
2022-12-12T02:25:57.058Z,5.00
2022-12-12T02:28:53.090Z,8.00
2022-12-12T02:31:23.032Z,4.80
2022-12-12T02:33:54.569Z,6.80
2022-12-12T02:36:27.121Z,5.00
2022-12-12T02:38:57.437Z,9.00
2022-12-12T02:41:28.298Z,6.00
2022-12-12T02:44:00.722Z,6.50
2022-12-12T02:46:33.012Z,9.00
2022-12-12T02:49:02.821Z,9.00
2022-12-12T02:51:31.147Z,6.33
2022-12-12T02:54:00.144Z,6.00
2022-12-12T02:56:46.207Z,9.00
2022-12-12T02:59:15.797Z,11.80
2022-12-12T03:01:50.331Z,9.00
2022-12-12T03:04:42.719Z,11.20
2022-12-12T03:07:30.127Z,12.00
2022-12-12T03:10:03.030Z,9.00
2022-12-12T03:12:35.070Z,9.50
2022-12-12T03:15:05.208Z,8.00
2022-12-12T03:17:37.375Z,12.00
2022-12-12T03:20:08.217Z,9.00
2022-12-12T03:22:39.789Z,8.20
2022-12-12T03:25:11.581Z,9.80
2022-12-12T03:27:41.743Z,9.60
2022-12-12T03:30:12.124Z,8.00
2022-12-12T03:32:43.065Z,9.00
2022-12-12T03:35:13.390Z,8.00
2022-12-12T03:37:45.832Z,9.60
2022-12-12T03:40:15.083Z,11.60
2022-12-12T03:42:46.348Z,8.25
2022-12-12T03:45:16.133Z,9.00
2022-12-12T03:47:50.304Z,9.00
2022-12-12T03:50:20.202Z,8.25
2022-12-12T03:52:50.707Z,6.80
2022-12-12T03:55:22.140Z,6.50
2022-12-12T03:57:52.573Z,8.00
2022-12-12T04:00:20.831Z,9.00
2022-12-12T04:02:52.039Z,9.00
2022-12-12T04:05:21.585Z,7.60
2022-12-12T04:07:52.798Z,9.00
2022-12-12T04:10:47.000Z,12.00
2022-12-12T04:13:20.992Z,5.00
2022-12-12T04:15:54.274Z,9.20
2022-12-12T04:18:35.740Z,6.00
2022-12-12T04:21:32.597Z,7.00
2022-12-12T04:24:03.125Z,9.00
2022-12-12T04:26:42.898Z,5.67
2022-12-12T04:29:16.696Z,8.00
2022-12-12T04:31:48.598Z,6.80
2022-12-12T04:34:26.947Z,6.40
2022-12-12T04:36:55.695Z,6.00
2022-12-12T04:39:23.748Z,6.00
2022-12-12T04:41:52.141Z,6.00
2022-12-12T04:44:20.907Z,7.00
2022-12-12T04:46:50.373Z,9.00
2022-12-12T04:49:20.694Z,7.60
2022-12-12T04:51:49.782Z,6.80
2022-12-12T04:54:20.779Z,6.80
2022-12-12T04:56:50.595Z,7.20
2022-12-12T04:59:18.632Z,6.00
2022-12-12T05:01:53.175Z,7.20
2022-12-12T05:04:25.888Z,8.00
2022-12-12T05:06:56.287Z,8.00
2022-12-12T05:09:24.334Z,9.00
2022-12-12T05:11:52.345Z,6.00
2022-12-12T05:14:20.376Z,6.40
2022-12-12T05:16:49.555Z,9.00
2022-12-12T05:19:17.676Z,8.00
2022-12-12T05:21:47.133Z,8.00
2022-12-12T05:24:15.167Z,7.60
2022-12-12T05:26:43.180Z,8.75
2022-12-12T05:29:11.224Z,7.20
2022-12-12T05:31:39.249Z,8.00
2022-12-12T05:34:07.302Z,9.00
2022-12-12T05:36:35.308Z,11.80
2022-12-12T05:39:04.846Z,8.00
2022-12-12T05:41:32.863Z,7.50
2022-12-12T05:44:00.908Z,9.50
2022-12-12T05:46:28.982Z,10.20
2022-12-12T05:48:57.032Z,8.00
2022-12-12T05:51:25.294Z,8.60
2022-12-12T05:53:53.388Z,6.40
2022-12-12T05:56:22.747Z,9.00
2022-12-12T05:58:50.783Z,10.00
2022-12-12T06:01:18.792Z,8.80
2022-12-12T06:03:46.923Z,9.80
2022-12-12T06:06:14.991Z,8.00
2022-12-12T06:08:43.071Z,9.00
2022-12-12T06:11:11.159Z,11.00
2022-12-12T06:13:40.543Z,8.50
2022-12-12T06:16:09.491Z,8.00
2022-12-12T06:18:37.582Z,8.00
2022-12-12T06:21:06.146Z,10.20
2022-12-12T06:23:36.732Z,10.20
2022-12-12T06:26:04.944Z,14.00
2022-12-12T06:28:33.172Z,8.40
2022-12-12T06:31:04.568Z,6.00
2022-12-12T06:33:35.695Z,11.40
2022-12-12T06:36:04.919Z,8.00
2022-12-12T06:38:32.962Z,8.60
2022-12-12T06:41:01.100Z,9.00
2022-12-12T06:43:29.150Z,9.00
2022-12-12T06:46:03.735Z,6.00
2022-12-12T06:48:32.068Z,8.00
2022-12-12T06:51:00.202Z,8.25
2022-12-12T06:53:28.369Z,8.20
2022-12-12T06:55:56.396Z,9.00
2022-12-12T06:58:24.435Z,8.00
2022-12-12T07:00:53.168Z,8.00
2022-12-12T07:03:22.555Z,8.25
2022-12-12T07:05:50.570Z,11.50
2022-12-12T07:08:18.672Z,9.00
2022-12-12T07:10:46.788Z,8.00
2022-12-12T07:13:14.815Z,11.40
2022-12-12T07:15:45.726Z,9.00
2022-12-12T07:18:13.847Z,9.00
2022-12-12T07:20:43.489Z,11.00
2022-12-12T07:23:11.908Z,9.80
2022-12-12T07:25:40.799Z,12.00
2022-12-12T07:28:08.936Z,5.00
2022-12-12T07:30:39.548Z,7.50
2022-12-12T07:33:07.698Z,9.00
2022-12-12T07:35:35.732Z,5.00
2022-12-12T07:38:05.216Z,11.40
2022-12-12T07:40:33.662Z,9.60
2022-12-12T07:43:01.712Z,8.40
2022-12-12T07:45:29.838Z,7.60
2022-12-12T07:47:57.847Z,5.00
2022-12-12T07:50:25.875Z,9.20
2022-12-12T07:52:53.887Z,9.00
2022-12-12T07:55:23.271Z,8.00
2022-12-12T07:57:53.200Z,7.20
2022-12-12T08:00:22.492Z,10.00
2022-12-12T08:02:50.507Z,12.00
2022-12-12T08:05:18.739Z,7.60
2022-12-12T08:07:47.210Z,7.80
2022-12-12T08:10:15.374Z,6.60
2022-12-12T08:12:44.750Z,8.00
2022-12-12T08:15:14.578Z,9.40
2022-12-12T08:17:42.835Z,5.00
2022-12-12T08:20:11.482Z,7.00
2022-12-12T08:22:39.492Z,7.00
2022-12-12T08:25:08.720Z,8.20
2022-12-12T08:27:36.725Z,8.00
2022-12-12T08:30:08.557Z,7.40
2022-12-12T08:32:36.765Z,7.50
2022-12-12T08:35:05.801Z,8.00
2022-12-12T08:37:33.811Z,13.75
2022-12-12T08:40:01.856Z,5.00
2022-12-12T08:42:29.881Z,8.00
2022-12-12T08:44:57.915Z,8.00
2022-12-12T08:47:27.293Z,7.50
2022-12-12T08:49:56.089Z,7.00
2022-12-12T08:52:24.100Z,10.00
2022-12-12T08:54:52.145Z,7.00
2022-12-12T08:57:25.820Z,9.00
2022-12-12T08:59:55.206Z,7.00
2022-12-12T09:02:23.501Z,7.60
2022-12-12T09:04:53.076Z,8.25
2022-12-12T09:07:21.112Z,7.00
2022-12-12T09:09:49.156Z,7.00
2022-12-12T09:12:17.168Z,7.50
2022-12-12T09:14:45.199Z,7.00
2022-12-12T09:17:13.221Z,5.00
2022-12-12T09:19:41.485Z,8.00
2022-12-12T09:22:10.858Z,7.00
2022-12-12T09:24:38.891Z,7.00
2022-12-12T09:27:06.910Z,6.80
2022-12-12T09:29:34.965Z,10.60
2022-12-12T09:32:06.505Z,5.00
2022-12-12T09:34:34.650Z,8.20
2022-12-12T09:37:03.012Z,4.60
2022-12-12T09:39:32.425Z,9.00
2022-12-12T09:42:10.771Z,6.00
2022-12-12T09:44:38.860Z,6.80
2022-12-12T09:47:08.510Z,6.00
2022-12-12T09:49:43.474Z,6.50
2022-12-12T09:52:13.214Z,6.80
2022-12-12T09:54:42.603Z,8.25
2022-12-12T09:57:21.288Z,4.00
2022-12-12T09:59:51.486Z,7.60
2022-12-12T10:02:31.832Z,7.20
2022-12-12T10:05:02.455Z,9.00
2022-12-12T10:07:34.332Z,9.25
2022-12-12T10:10:07.459Z,9.00
2022-12-12T10:12:35.464Z,9.00
2022-12-12T10:15:04.148Z,14.00
2022-12-12T10:17:34.204Z,8.50
2022-12-12T10:20:06.301Z,9.00
2022-12-12T10:22:38.125Z,8.00
2022-12-12T10:25:16.973Z,9.60
2022-12-12T10:27:44.975Z,9.00
2022-12-12T10:30:16.757Z,10.00
2022-12-12T10:32:53.528Z,9.00
2022-12-12T10:35:26.907Z,9.80
2022-12-12T10:38:02.324Z,11.00
2022-12-12T10:40:37.967Z,11.20
2022-12-12T10:43:07.487Z,15.33
2022-12-12T10:45:43.118Z,13.60
2022-12-12T10:48:11.505Z,15.00
2022-12-12T10:50:40.810Z,15.00
2022-12-12T10:53:09.913Z,11.40
2022-12-12T10:55:42.379Z,13.00
2022-12-12T10:58:10.387Z,16.00
2022-12-12T11:00:39.527Z,11.00
2022-12-12T11:03:21.395Z,14.00
2022-12-12T11:05:49.511Z,12.00
2022-12-12T11:08:23.149Z,14.40
2022-12-12T11:11:03.013Z,9.00
2022-12-12T11:13:31.248Z,10.50
2022-12-12T11:16:00.040Z,7.00
2022-12-12T11:18:29.466Z,11.40
2022-12-12T11:21:04.615Z,11.00
2022-12-12T11:23:32.623Z,9.00
2022-12-12T11:26:03.586Z,8.20
2022-12-12T11:28:34.311Z,9.00
2022-12-12T11:31:03.953Z,7.00
2022-12-12T11:33:34.035Z,8.75
2022-12-12T11:36:04.079Z,8.50
2022-12-12T11:38:33.579Z,9.00
2022-12-12T11:41:05.644Z,7.00
2022-12-12T11:43:34.016Z,7.00
2022-12-12T11:46:04.128Z,7.00
2022-12-12T11:48:56.334Z,8.00
2022-12-12T11:51:33.085Z,7.00
2022-12-12T11:54:01.251Z,5.00
2022-12-12T11:56:39.991Z,5.00
2022-12-12T11:59:21.229Z,7.00
2022-12-12T12:01:53.136Z,4.25
2022-12-12T12:04:34.868Z,7.00
2022-12-12T12:07:10.960Z,5.00
2022-12-12T12:09:43.136Z,9.60
2022-12-12T12:12:14.530Z,5.00
2022-12-12T12:14:52.591Z,7.00
2022-12-12T12:17:24.511Z,7.00
2022-12-12T12:19:54.571Z,7.75
2022-12-12T12:22:26.276Z,5.00
2022-12-12T12:25:05.376Z,6.60
2022-12-12T12:27:38.759Z,4.20
2022-12-12T12:30:21.562Z,7.00
2022-12-12T12:33:12.539Z,4.00
2022-12-12T12:35:48.776Z,8.00
2022-12-12T12:38:21.665Z,8.20
2022-12-12T12:40:58.121Z,7.00
2022-12-12T12:43:36.096Z,5.00
2022-12-12T12:46:08.575Z,6.00
2022-12-12T12:48:37.819Z,5.00
2022-12-12T12:51:07.541Z,5.60
2022-12-12T12:53:37.893Z,7.60
2022-12-12T12:56:10.646Z,7.00
2022-12-12T12:58:45.274Z,8.00
2022-12-12T13:01:14.855Z,6.20
2022-12-12T13:03:45.591Z,8.00
2022-12-12T13:06:15.696Z,9.00
2022-12-12T13:08:48.534Z,7.67
2022-12-12T13:11:19.035Z,11.00
2022-12-12T13:13:49.175Z,7.75
2022-12-12T13:16:17.680Z,5.00
2022-12-12T13:18:46.387Z,7.50
2022-12-12T13:21:17.476Z,9.00
2022-12-12T13:23:52.830Z,8.00
2022-12-12T13:26:24.375Z,7.20
2022-12-12T13:28:55.751Z,8.00
2022-12-12T13:31:40.043Z,8.00
2022-12-12T13:34:08.841Z,11.00
2022-12-12T13:36:37.987Z,8.00
2022-12-12T13:39:06.833Z,7.50
2022-12-12T13:41:57.551Z,9.00
2022-12-12T13:44:38.021Z,9.00
2022-12-12T13:47:06.395Z,8.00
2022-12-12T13:49:45.377Z,11.50
2022-12-12T13:52:26.202Z,8.00
2022-12-12T13:54:55.898Z,8.00
2022-12-12T13:57:29.600Z,9.60
2022-12-12T14:00:21.099Z,9.50
2022-12-12T14:03:03.630Z,10.00
2022-12-12T14:05:34.035Z,8.00
2022-12-12T14:08:21.365Z,7.40
2022-12-12T14:10:54.764Z,10.75
2022-12-12T14:13:43.038Z,8.00
2022-12-12T14:16:23.210Z,10.50
2022-12-12T14:19:08.527Z,6.60
2022-12-12T14:21:46.808Z,7.00
2022-12-12T14:24:48.503Z,10.00
2022-12-12T14:27:16.728Z,9.00
2022-12-12T14:29:44.865Z,6.00
2022-12-12T14:32:38.839Z,9.00
2022-12-12T14:35:18.517Z,7.40
2022-12-12T14:37:51.829Z,9.60
2022-12-12T14:40:20.783Z,7.00
2022-12-12T14:43:21.288Z,7.00
2022-12-12T14:45:54.121Z,7.40
2022-12-12T14:48:25.066Z,5.00
2022-12-12T14:51:02.885Z,7.00
2022-12-12T14:53:33.513Z,7.00
2022-12-12T14:56:02.604Z,7.00
2022-12-12T14:58:37.281Z,4.50
2022-12-12T15:01:05.869Z,7.00
2022-12-12T15:03:39.054Z,6.50
2022-12-12T15:06:27.442Z,7.00
2022-12-12T15:08:55.840Z,6.00
2022-12-12T15:11:24.693Z,7.80
2022-12-12T15:13:54.031Z,7.00
2022-12-12T15:16:25.910Z,4.40
2022-12-12T15:18:55.534Z,7.75
2022-12-12T15:21:23.591Z,7.00
2022-12-12T15:23:51.584Z,8.00
2022-12-12T15:26:21.125Z,7.00
2022-12-12T15:28:49.453Z,7.00
2022-12-12T15:31:19.202Z,7.00
2022-12-12T15:33:47.476Z,6.20
2022-12-12T15:36:26.495Z,7.00
2022-12-12T15:39:05.602Z,5.67
2022-12-12T15:41:34.022Z,7.00
2022-12-12T15:44:02.848Z,4.75
2022-12-12T15:46:31.483Z,7.20
2022-12-12T15:48:59.547Z,7.40
2022-12-12T15:51:32.199Z,4.40
2022-12-12T15:54:00.242Z,7.00
2022-12-12T15:56:29.044Z,6.50
2022-12-12T15:59:15.993Z,6.60
2022-12-12T16:01:44.389Z,5.00
2022-12-12T16:04:23.754Z,5.00
2022-12-12T16:06:53.150Z,4.25
2022-12-12T16:09:22.087Z,7.00
2022-12-12T16:11:52.233Z,6.60
2022-12-12T16:14:37.297Z,6.60
2022-12-12T16:17:09.912Z,5.00
2022-12-12T16:19:45.707Z,5.00
2022-12-12T16:22:33.021Z,7.00
2022-12-12T16:25:13.755Z,7.25
2022-12-12T16:27:41.756Z,5.00
2022-12-12T16:30:12.605Z,7.00
2022-12-12T16:32:40.784Z,6.60
2022-12-12T16:35:10.544Z,4.60
2022-12-12T16:37:39.895Z,7.00
2022-12-12T16:40:09.416Z,7.00
2022-12-12T16:42:37.546Z,9.80
2022-12-12T16:45:06.419Z,7.00
2022-12-12T16:47:34.435Z,5.00
2022-12-12T16:50:02.478Z,8.50
2022-12-12T16:52:30.513Z,7.00
2022-12-12T16:54:59.896Z,7.25
2022-12-12T16:57:27.925Z,7.80
2022-12-12T16:59:55.941Z,6.33
2022-12-12T17:02:25.564Z,7.25
2022-12-12T17:04:53.573Z,7.20
2022-12-12T17:07:21.617Z,8.00
2022-12-12T17:09:49.663Z,9.00
2022-12-12T17:12:20.231Z,7.50
2022-12-12T17:14:48.230Z,7.25
2022-12-12T17:17:16.259Z,6.50
2022-12-12T17:19:44.274Z,5.00
2022-12-12T17:22:12.312Z,7.50
2022-12-12T17:24:40.331Z,7.00
2022-12-12T17:27:08.363Z,5.50
2022-12-12T17:29:37.729Z,7.25
2022-12-12T17:32:06.357Z,7.00
2022-12-12T17:34:34.422Z,7.75
2022-12-12T17:37:02.587Z,7.00
2022-12-12T17:39:30.604Z,6.20
2022-12-12T17:41:58.638Z,4.00
2022-12-12T17:44:26.714Z,4.50
2022-12-12T17:46:56.113Z,4.80
2022-12-12T17:49:24.125Z,5.00
2022-12-12T17:51:52.168Z,5.00
2022-12-12T17:54:20.427Z,8.00
2022-12-12T17:56:48.479Z,7.00
2022-12-12T17:59:16.494Z,4.00
2022-12-12T18:01:44.852Z,7.50
2022-12-12T18:04:14.269Z,4.25
2022-12-12T18:06:42.395Z,7.40
2022-12-12T18:09:10.406Z,5.00
2022-12-12T18:11:38.944Z,5.00
2022-12-12T18:14:08.031Z,5.00
2022-12-12T18:16:36.515Z,6.20
2022-12-12T18:19:04.645Z,7.40
2022-12-12T18:24:23.870Z,5.00
2022-12-12T18:26:53.540Z,5.40
2022-12-12T18:29:21.721Z,4.80
2022-12-12T18:31:49.798Z,4.25
2022-12-12T18:34:17.904Z,5.75
2022-12-12T18:36:47.292Z,5.50
2022-12-12T18:39:15.310Z,5.00
2022-12-12T18:41:43.356Z,8.00
2022-12-12T18:44:13.242Z,6.00
2022-12-12T18:46:43.430Z,7.00
2022-12-12T18:49:13.811Z,5.00
2022-12-12T18:51:42.124Z,6.00
2022-12-12T18:54:15.499Z,6.00
2022-12-12T18:56:44.214Z,5.00
2022-12-12T18:59:12.300Z,6.50
2022-12-12T19:01:40.359Z,8.00
2022-12-12T19:04:13.182Z,8.00
2022-12-12T19:06:43.263Z,5.00
2022-12-12T19:09:15.305Z,5.40
2022-12-12T19:11:43.636Z,8.00
2022-12-12T19:14:12.301Z,9.00
2022-12-12T19:16:40.404Z,6.80
2022-12-12T19:19:09.465Z,5.00
2022-12-12T19:21:38.565Z,9.40
2022-12-12T19:24:09.185Z,10.00
2022-12-12T19:26:38.865Z,11.00
2022-12-12T19:29:08.300Z,8.00
2022-12-12T19:31:36.538Z,9.00
2022-12-12T19:34:04.647Z,8.00
2022-12-12T19:36:33.003Z,8.40
2022-12-12T19:39:03.232Z,8.50
2022-12-12T19:41:31.264Z,8.20
2022-12-12T19:44:01.689Z,8.00
2022-12-12T19:46:30.972Z,12.00
2022-12-12T19:48:59.813Z,9.00
2022-12-12T19:51:28.269Z,9.00
2022-12-12T19:53:57.927Z,9.80
2022-12-12T19:56:27.043Z,9.60
2022-12-12T19:58:55.508Z,14.20
2022-12-12T20:01:26.356Z,10.50
2022-12-12T20:03:55.755Z,8.75
2022-12-12T20:06:26.320Z,11.00
2022-12-12T20:08:55.613Z,10.20
2022-12-12T20:11:24.636Z,8.00
2022-12-12T20:13:53.570Z,12.00
2022-12-12T20:16:24.095Z,10.20
2022-12-12T20:18:52.162Z,9.00
2022-12-12T20:21:51.854Z,11.00
2022-12-12T20:24:08.970Z,10.20
2022-12-12T20:26:37.070Z,12.00
2022-12-12T20:29:05.102Z,10.80
2022-12-12T20:31:35.502Z,9.80
2022-12-12T20:34:03.556Z,12.00
2022-12-12T20:36:32.495Z,12.40
2022-12-12T20:39:01.284Z,12.00
2022-12-12T20:41:30.113Z,12.00
2022-12-12T20:43:59.296Z,13.00
2022-12-12T20:46:29.858Z,11.60
2022-12-12T20:48:59.602Z,11.50
2022-12-12T20:51:54.111Z,11.80
2022-12-12T20:54:21.500Z,11.75
2022-12-12T20:56:49.956Z,13.00
2022-12-12T20:59:18.000Z,11.50
2022-12-12T21:01:47.466Z,12.20
2022-12-12T21:04:17.155Z,12.40
2022-12-12T21:06:48.393Z,15.00
2022-12-12T21:09:23.417Z,16.00
2022-12-12T21:11:52.308Z,15.00
2022-12-12T21:14:20.379Z,13.80
2022-12-12T21:16:48.424Z,13.00
2022-12-12T21:19:18.910Z,15.00
2022-12-12T21:21:47.148Z,13.50
2022-12-12T21:24:16.774Z,15.00
2022-12-12T21:26:44.889Z,15.00
2022-12-12T21:29:12.915Z,13.00
2022-12-12T21:31:50.460Z,15.00
2022-12-12T21:34:21.066Z,11.25
2022-12-12T21:36:51.863Z,19.00
2022-12-12T21:39:19.997Z,15.00
2022-12-12T21:41:47.996Z,15.80
2022-12-12T21:44:16.010Z,17.00
2022-12-12T21:46:44.339Z,16.00
2022-12-12T21:49:26.300Z,13.00
2022-12-12T21:51:56.603Z,13.00
2022-12-12T21:54:24.763Z,15.00
2022-12-12T21:56:52.921Z,16.25
2022-12-12T21:59:20.948Z,12.00
2022-12-12T22:01:49.042Z,14.20
2022-12-12T22:04:17.076Z,15.20
2022-12-12T22:06:45.737Z,20.00
2022-12-12T22:09:15.178Z,15.00
2022-12-12T22:11:48.260Z,13.50
2022-12-12T22:14:20.096Z,9.60
2022-12-12T22:16:48.139Z,10.80
2022-12-12T22:19:16.494Z,14.20
2022-12-12T22:21:46.331Z,10.00
2022-12-12T22:24:15.797Z,12.00
2022-12-12T22:26:44.736Z,13.00
2022-12-12T22:29:13.804Z,13.50
2022-12-12T22:31:42.021Z,9.40
2022-12-12T22:34:12.271Z,12.00
2022-12-12T22:36:40.468Z,16.00
2022-12-12T22:39:16.283Z,15.00
2022-12-12T22:41:45.813Z,10.00
2022-12-12T22:44:15.797Z,10.00
2022-12-12T22:46:44.580Z,12.00
2022-12-12T22:49:13.934Z,13.00
2022-12-12T22:51:42.058Z,12.00
2022-12-12T22:54:10.097Z,12.20
2022-12-12T22:56:38.238Z,13.00
2022-12-12T22:59:07.834Z,13.00
2022-12-12T23:01:36.481Z,13.00
2022-12-12T23:04:04.613Z,10.40
2022-12-12T23:06:35.963Z,13.00
2022-12-12T23:09:05.142Z,17.40
2022-12-12T23:11:33.254Z,13.75
2022-12-12T23:14:04.616Z,13.00
2022-12-12T23:16:35.292Z,10.80
2022-12-12T23:19:03.796Z,14.00
2022-12-12T23:21:31.884Z,13.40
2022-12-12T23:23:59.927Z,13.60
2022-12-12T23:26:30.283Z,13.40
2022-12-12T23:28:58.593Z,13.20
2022-12-12T23:31:27.803Z,15.50
2022-12-12T23:33:58.063Z,12.00
2022-12-12T23:36:26.168Z,13.40
2022-12-12T23:38:55.631Z,14.00
2022-12-12T23:41:23.646Z,11.60
2022-12-12T23:43:51.799Z,15.20
2022-12-12T23:46:29.400Z,13.00
2022-12-12T23:48:59.346Z,13.40
2022-12-12T23:51:28.142Z,17.80
2022-12-12T23:53:57.666Z,14.00
2022-12-12T23:56:25.692Z,12.00
2022-12-12T23:58:53.799Z,10.00
